createdAt,value
2023-05-14T00:01:08.286Z,5.40
2023-05-14T00:03:35.774Z,4.88
2023-05-14T00:06:03.268Z,5.45
2023-05-14T00:08:30.244Z,5.35
2023-05-14T00:10:57.274Z,6.15
2023-05-14T00:13:25.371Z,6.10
2023-05-14T00:15:52.466Z,5.95
2023-05-14T00:18:19.580Z,6.35
2023-05-14T00:20:46.604Z,6.40
2023-05-14T00:23:13.771Z,6.25
2023-05-14T00:25:40.866Z,6.60
2023-05-14T00:28:08.040Z,6.13
2023-05-14T00:30:35.181Z,6.20
2023-05-14T00:33:02.507Z,7.03
2023-05-14T00:35:29.634Z,6.28
2023-05-14T00:37:56.838Z,5.80
2023-05-14T00:40:27.320Z,7.70
2023-05-14T00:42:55.295Z,9.77
2023-05-14T00:45:22.783Z,9.45
2023-05-14T00:47:50.669Z,8.90
2023-05-14T00:50:18.291Z,8.15
2023-05-14T00:52:46.030Z,8.82
2023-05-14T00:55:16.630Z,8.25
2023-05-14T00:57:44.584Z,8.35
2023-05-14T01:00:12.104Z,8.00
2023-05-14T01:02:39.304Z,8.30
2023-05-14T01:05:07.395Z,9.38
2023-05-14T01:08:02.599Z,9.10
2023-05-14T01:10:38.051Z,9.02
2023-05-14T01:13:21.291Z,7.80
2023-05-14T01:15:49.309Z,8.18
2023-05-14T01:18:18.820Z,8.27
2023-05-14T01:20:46.546Z,8.75
2023-05-14T01:23:13.727Z,9.95
2023-05-14T01:25:41.725Z,10.52
2023-05-14T01:28:30.007Z,9.98
2023-05-14T01:31:08.729Z,9.77
2023-05-14T01:33:36.668Z,9.45
2023-05-14T01:36:04.307Z,8.50
2023-05-14T01:38:34.304Z,8.60
2023-05-14T01:41:02.388Z,8.85
2023-05-14T01:43:30.752Z,9.25
2023-05-14T01:45:57.925Z,9.15
2023-05-14T01:48:25.561Z,10.15
2023-05-14T01:50:52.723Z,8.75
2023-05-14T01:53:19.887Z,9.45
2023-05-14T01:55:46.943Z,11.60
2023-05-14T01:58:14.139Z,12.30
2023-05-14T02:00:41.263Z,11.38
2023-05-14T02:03:08.723Z,12.50
2023-05-14T02:05:35.817Z,12.18
2023-05-14T02:08:02.885Z,12.05
2023-05-14T02:10:30.034Z,10.13
2023-05-14T02:12:57.144Z,10.65
2023-05-14T02:15:24.415Z,10.68
2023-05-14T02:17:51.468Z,10.98
2023-05-14T02:20:18.746Z,11.90
2023-05-14T02:22:46.496Z,10.90
2023-05-14T02:25:14.023Z,10.95
2023-05-14T02:27:41.143Z,11.50
2023-05-14T02:30:09.464Z,11.73
2023-05-14T02:32:37.241Z,11.00
2023-05-14T02:35:04.663Z,11.02
2023-05-14T02:37:32.303Z,11.73
2023-05-14T02:39:59.411Z,11.30
2023-05-14T02:42:27.212Z,10.88
2023-05-14T02:44:54.322Z,11.63
2023-05-14T02:47:21.369Z,11.38
2023-05-14T02:49:48.575Z,11.50
2023-05-14T02:52:15.698Z,11.70
2023-05-14T02:54:43.314Z,10.85
2023-05-14T02:57:10.609Z,10.43
2023-05-14T02:59:37.674Z,11.75
2023-05-14T03:02:05.823Z,12.52
2023-05-14T03:04:33.387Z,12.15
2023-05-14T03:07:00.487Z,12.18
2023-05-14T03:09:27.500Z,11.98
2023-05-14T03:11:55.441Z,11.43
2023-05-14T03:14:22.663Z,10.68
2023-05-14T03:16:50.295Z,11.05
2023-05-14T03:19:18.366Z,10.02
2023-05-14T03:21:45.914Z,10.95
2023-05-14T03:24:12.935Z,9.98
2023-05-14T03:26:40.014Z,10.73
2023-05-14T03:29:07.765Z,10.32
2023-05-14T03:31:35.152Z,10.20
2023-05-14T03:34:02.333Z,10.27
2023-05-14T03:36:29.528Z,9.45
2023-05-14T03:38:56.608Z,8.80
2023-05-14T03:41:23.726Z,8.70
2023-05-14T03:43:50.828Z,9.40
2023-05-14T03:46:17.964Z,8.07
2023-05-14T03:48:45.053Z,7.50
2023-05-14T03:51:12.511Z,8.25
2023-05-14T03:53:39.638Z,8.40
2023-05-14T03:56:07.243Z,8.30
2023-05-14T03:58:34.310Z,8.07
2023-05-14T04:01:01.361Z,8.18
2023-05-14T04:03:28.646Z,8.27
2023-05-14T04:05:57.230Z,8.32
2023-05-14T04:08:24.284Z,10.43
2023-05-14T04:10:51.824Z,10.20
2023-05-14T04:13:19.042Z,10.20
2023-05-14T04:15:46.253Z,9.70
2023-05-14T04:18:13.853Z,8.30
2023-05-14T04:20:41.315Z,8.18
2023-05-14T04:23:08.554Z,8.60
2023-05-14T04:25:35.705Z,9.63
2023-05-14T04:28:02.880Z,8.68
2023-05-14T04:30:29.972Z,8.13
2023-05-14T04:32:57.325Z,7.90
2023-05-14T04:35:25.255Z,8.52
2023-05-14T04:37:52.501Z,8.35
2023-05-14T04:40:19.663Z,8.93
2023-05-14T04:42:46.726Z,9.07
2023-05-14T04:45:13.931Z,9.85
2023-05-14T04:47:41.880Z,8.60
2023-05-14T04:50:10.091Z,9.43
2023-05-14T04:52:37.254Z,8.70
2023-05-14T04:55:04.603Z,9.40
2023-05-14T04:57:31.732Z,9.02
2023-05-14T04:59:58.833Z,10.10
2023-05-14T05:02:26.533Z,9.77
2023-05-14T05:04:53.697Z,9.48
2023-05-14T05:07:20.811Z,9.02
2023-05-14T05:09:47.848Z,9.15
2023-05-14T05:12:14.949Z,9.20
2023-05-14T05:14:41.943Z,8.48
2023-05-14T05:17:09.136Z,8.52
2023-05-14T05:19:43.294Z,9.13
2023-05-14T05:22:11.172Z,9.35
2023-05-14T05:24:38.194Z,8.95
2023-05-14T05:27:06.262Z,9.20
2023-05-14T05:29:33.533Z,8.57
2023-05-14T05:32:00.893Z,8.65
2023-05-14T05:34:28.222Z,8.88
2023-05-14T05:36:55.254Z,8.52
2023-05-14T05:39:22.326Z,8.63
2023-05-14T05:41:49.364Z,11.68
2023-05-14T05:44:16.453Z,8.35
2023-05-14T05:46:43.606Z,8.52
2023-05-14T05:49:10.843Z,7.60
2023-05-14T05:51:39.203Z,7.32
2023-05-14T05:54:06.343Z,8.23
2023-05-14T05:56:33.351Z,7.13
2023-05-14T05:59:00.740Z,5.95
2023-05-14T06:01:28.110Z,6.13
2023-05-14T06:03:55.202Z,5.60
2023-05-14T06:06:22.420Z,6.05
2023-05-14T06:08:49.494Z,6.25
2023-05-14T06:11:48.880Z,6.38
2023-05-14T06:14:15.969Z,6.07
2023-05-14T06:16:43.328Z,5.88
2023-05-14T06:19:11.380Z,6.00
2023-05-14T06:21:38.793Z,5.93
2023-05-14T06:24:06.250Z,6.05
2023-05-14T06:26:33.342Z,6.10
2023-05-14T06:29:00.608Z,6.18
2023-05-14T06:31:27.719Z,6.00
2023-05-14T06:33:54.774Z,6.38
2023-05-14T06:36:21.798Z,6.07
2023-05-14T06:38:48.832Z,6.00
2023-05-14T06:41:16.901Z,5.45
2023-05-14T06:43:43.932Z,5.30
2023-05-14T06:46:10.989Z,4.72
2023-05-14T06:48:38.121Z,5.10
2023-05-14T06:51:08.613Z,4.93
2023-05-14T06:53:35.758Z,5.28
2023-05-14T06:56:02.854Z,4.60
2023-05-14T06:58:29.952Z,4.82
2023-05-14T07:00:57.054Z,4.53
2023-05-14T07:03:24.232Z,4.30
2023-05-14T07:05:52.277Z,4.63
2023-05-14T07:08:19.430Z,3.60
2023-05-14T07:10:46.454Z,2.97
2023-05-14T07:13:13.870Z,2.90
2023-05-14T07:15:41.053Z,2.92
2023-05-14T07:18:08.207Z,3.83
2023-05-14T07:20:35.311Z,3.20
2023-05-14T07:23:02.357Z,4.03
2023-05-14T07:25:29.446Z,3.13
2023-05-14T07:27:56.554Z,2.95
2023-05-14T07:30:23.852Z,2.70
2023-05-14T07:32:51.364Z,2.67
2023-05-14T07:35:18.670Z,2.90
2023-05-14T07:37:45.725Z,2.75
2023-05-14T07:40:12.931Z,2.90
2023-05-14T07:42:40.105Z,2.58
2023-05-14T07:45:07.967Z,2.75
2023-05-14T07:47:35.243Z,3.33
2023-05-14T07:50:02.456Z,2.90
2023-05-14T07:52:30.709Z,2.58
2023-05-14T07:54:57.770Z,2.92
2023-05-14T07:57:24.754Z,2.90
2023-05-14T07:59:51.874Z,2.80
2023-05-14T08:02:19.111Z,2.42
2023-05-14T08:04:46.219Z,2.70
2023-05-14T08:07:13.422Z,2.63
2023-05-14T08:09:40.557Z,3.00
2023-05-14T08:12:08.625Z,2.65
2023-05-14T08:14:35.729Z,2.90
2023-05-14T08:17:04.199Z,2.70
2023-05-14T08:19:31.372Z,2.30
2023-05-14T08:21:58.315Z,2.92
2023-05-14T08:24:25.407Z,2.72
2023-05-14T08:26:52.714Z,2.47
2023-05-14T08:29:19.966Z,2.70
2023-05-14T08:31:47.092Z,3.00
2023-05-14T08:34:14.265Z,2.97
2023-05-14T08:36:41.529Z,2.90
2023-05-14T08:39:08.656Z,2.42
2023-05-14T08:41:36.264Z,2.65
2023-05-14T08:44:15.403Z,2.83
2023-05-14T08:46:42.634Z,2.40
2023-05-14T08:49:29.359Z,2.08
2023-05-14T08:51:56.641Z,2.30
2023-05-14T08:54:24.915Z,2.42
2023-05-14T08:56:52.527Z,2.65
2023-05-14T08:59:20.142Z,2.42
2023-05-14T09:01:48.906Z,2.42
2023-05-14T09:04:17.996Z,2.50
2023-05-14T09:06:46.565Z,2.40
2023-05-14T09:09:13.905Z,2.20
2023-05-14T09:11:43.756Z,2.47
2023-05-14T09:14:10.863Z,2.30
2023-05-14T09:16:39.220Z,2.20
2023-05-14T09:19:07.249Z,1.80
2023-05-14T09:21:35.386Z,2.08
2023-05-14T09:24:02.451Z,2.17
2023-05-14T09:26:32.405Z,2.20
2023-05-14T09:29:03.796Z,2.20
2023-05-14T09:31:32.099Z,2.42
2023-05-14T09:34:00.035Z,1.85
2023-05-14T09:36:27.507Z,2.05
2023-05-14T09:38:57.580Z,2.30
2023-05-14T09:41:25.032Z,2.20
2023-05-14T09:43:52.487Z,2.10
2023-05-14T09:46:19.585Z,1.90
2023-05-14T09:48:46.736Z,2.10
2023-05-14T09:51:14.328Z,1.95
2023-05-14T09:53:42.052Z,2.17
2023-05-14T09:56:09.379Z,2.28
2023-05-14T09:58:36.608Z,2.13
2023-05-14T10:01:03.924Z,2.05
2023-05-14T10:03:31.111Z,1.95
2023-05-14T10:06:05.218Z,2.03
2023-05-14T10:08:35.619Z,2.35
2023-05-14T10:11:07.323Z,2.33
2023-05-14T10:13:40.901Z,2.50
2023-05-14T10:16:28.855Z,2.42
2023-05-14T10:19:09.980Z,2.40
2023-05-14T10:21:38.520Z,2.50
2023-05-14T10:24:06.752Z,2.33
2023-05-14T10:26:39.475Z,2.10
2023-05-14T10:29:07.098Z,2.25
2023-05-14T10:31:49.051Z,1.90
2023-05-14T10:34:41.205Z,1.77
2023-05-14T10:37:14.533Z,2.42
2023-05-14T10:39:50.191Z,2.50
2023-05-14T12:15:15.484Z,3.40
2023-05-14T12:17:56.288Z,2.42
2023-05-14T12:20:28.381Z,2.60
2023-05-14T12:23:04.680Z,2.88
2023-05-14T12:25:35.076Z,2.83
2023-05-14T12:28:15.123Z,2.53
2023-05-14T12:30:42.553Z,2.40
2023-05-14T12:33:10.372Z,3.30
2023-05-14T12:35:41.467Z,3.10
2023-05-14T12:38:22.725Z,2.85
2023-05-14T12:45:51.472Z,3.30
2023-05-14T12:48:19.197Z,2.88
2023-05-14T12:50:46.790Z,3.53
2023-05-14T12:53:18.356Z,3.00
2023-05-14T12:55:47.531Z,3.28
2023-05-14T12:58:15.410Z,3.17
2023-05-14T13:00:42.477Z,2.92
2023-05-14T13:16:22.043Z,3.50
2023-05-14T13:28:26.477Z,2.75
2023-05-14T13:38:55.974Z,3.58
2023-05-14T13:41:22.974Z,3.35
2023-05-14T13:43:50.311Z,3.58
2023-05-14T13:46:17.368Z,4.18
2023-05-14T13:48:44.390Z,4.28
2023-05-14T13:51:16.049Z,3.60
2023-05-14T13:53:43.143Z,3.40
2023-05-14T13:56:10.198Z,3.08
2023-05-14T13:58:50.057Z,2.95
2023-05-14T14:01:17.149Z,3.10
2023-05-14T14:03:44.196Z,3.28
2023-05-14T14:06:11.104Z,3.10
2023-05-14T14:08:38.227Z,2.90
2023-05-14T14:11:05.462Z,4.50
2023-05-14T14:13:32.568Z,2.45
2023-05-14T14:16:00.263Z,2.50
2023-05-14T14:18:27.512Z,2.15
2023-05-14T14:20:54.850Z,2.10
2023-05-14T14:23:21.831Z,2.20
2023-05-14T14:25:49.057Z,1.85
2023-05-14T14:28:16.158Z,1.88
2023-05-14T14:30:44.027Z,1.80
2023-05-14T14:33:11.748Z,1.65
2023-05-14T14:35:38.869Z,2.00
2023-05-14T14:38:05.977Z,1.80
2023-05-14T14:40:34.534Z,1.77
2023-05-14T14:43:02.371Z,1.80
2023-05-14T14:45:29.470Z,2.10
2023-05-14T14:48:24.822Z,2.25
2023-05-14T14:50:52.348Z,3.50
2023-05-14T14:53:20.574Z,2.75
2023-05-14T14:55:52.140Z,2.90
2023-05-14T14:58:20.918Z,2.40
2023-05-14T15:00:49.070Z,2.65
2023-05-14T15:06:32.988Z,2.95
2023-05-14T15:09:00.137Z,2.60
2023-05-14T15:11:29.002Z,2.97
2023-05-14T15:13:56.287Z,2.40
2023-05-14T15:16:25.308Z,2.88
2023-05-14T15:18:53.227Z,2.75
2023-05-14T15:21:20.375Z,2.80
2023-05-14T15:23:47.496Z,2.78
2023-05-14T15:26:14.845Z,3.08
2023-05-14T15:28:41.977Z,2.75
2023-05-14T15:31:09.122Z,2.70
2023-05-14T15:33:36.440Z,3.50
2023-05-14T15:36:04.111Z,2.60
2023-05-14T15:38:31.495Z,2.45
2023-05-14T15:40:58.769Z,2.70
2023-05-14T16:39:52.962Z,2.85
2023-05-14T16:42:20.469Z,2.35
2023-05-14T16:44:47.676Z,2.45
2023-05-14T16:47:17.784Z,2.20
2023-05-14T16:49:49.255Z,2.22
2023-05-14T16:52:18.054Z,2.35
2023-05-14T16:54:45.565Z,2.40
2023-05-14T16:57:12.769Z,2.10
2023-05-14T16:59:40.583Z,2.28
2023-05-14T17:02:08.224Z,1.98
2023-05-14T17:04:38.932Z,2.30
2023-05-14T17:07:06.283Z,2.03
2023-05-14T17:09:33.519Z,2.05
2023-05-14T17:12:00.879Z,2.67
2023-05-14T17:14:28.409Z,2.20
2023-05-14T17:16:55.707Z,2.40
2023-05-14T17:19:22.903Z,2.08
2023-05-14T17:21:50.055Z,2.92
2023-05-14T17:24:17.348Z,2.50
2023-05-14T17:26:44.642Z,2.60
2023-05-14T17:29:11.964Z,2.58
2023-05-14T17:31:39.309Z,2.28
2023-05-14T17:34:06.608Z,2.28
2023-05-14T17:36:33.858Z,2.33
2023-05-14T17:39:01.023Z,2.50
2023-05-14T17:41:31.606Z,2.50
2023-05-14T17:43:58.937Z,2.28
2023-05-14T17:46:26.350Z,2.60
2023-05-14T17:48:53.668Z,2.17
2023-05-14T17:51:20.893Z,2.45
2023-05-14T17:53:48.059Z,2.72
2023-05-14T17:56:19.982Z,2.58
2023-05-14T17:58:47.567Z,3.15
2023-05-14T18:04:00.418Z,2.47
2023-05-14T18:06:27.553Z,2.38
2023-05-14T18:08:55.228Z,2.30
2023-05-14T18:11:22.486Z,2.35
2023-05-14T18:13:49.726Z,2.28
2023-05-14T18:16:16.946Z,2.80
2023-05-14T18:18:44.360Z,2.90
2023-05-14T18:21:12.244Z,2.60
2023-05-14T18:23:39.359Z,2.80
2023-05-14T18:26:07.019Z,2.35
2023-05-14T18:28:34.374Z,2.60
2023-05-14T18:31:01.708Z,2.40
2023-05-14T18:33:29.738Z,3.53
2023-05-14T18:35:57.436Z,2.55
2023-05-14T18:38:24.703Z,2.50
2023-05-14T18:40:52.018Z,2.80
2023-05-14T18:43:20.637Z,3.08
2023-05-14T18:45:49.042Z,2.40
2023-05-14T18:48:16.938Z,3.05
2023-05-14T18:58:17.856Z,2.92
2023-05-14T19:00:45.000Z,3.08
2023-05-14T19:03:12.237Z,2.80
2023-05-14T19:05:39.390Z,3.28
2023-05-14T19:08:06.806Z,2.80
2023-05-14T19:10:34.913Z,3.10
2023-05-14T19:13:02.498Z,3.28
2023-05-14T19:15:29.571Z,2.85
2023-05-14T19:17:56.707Z,3.20
2023-05-14T19:20:23.764Z,3.00
2023-05-14T19:22:51.029Z,3.05
2023-05-14T19:25:18.051Z,3.17
2023-05-14T19:27:45.784Z,3.28
2023-05-14T19:30:17.392Z,3.30
2023-05-14T19:32:45.410Z,3.45
2023-05-14T19:35:13.241Z,3.53
2023-05-14T19:37:40.480Z,3.40
2023-05-14T19:40:08.058Z,3.38
2023-05-14T19:42:35.073Z,3.60
2023-05-14T19:45:02.343Z,3.38
2023-05-14T19:47:29.793Z,3.92
2023-05-14T19:49:56.943Z,3.60
2023-05-14T19:52:24.027Z,3.80
2023-05-14T19:54:53.423Z,3.55
2023-05-14T19:57:22.801Z,3.65
2023-05-14T19:59:51.193Z,4.10
2023-05-14T20:02:18.689Z,4.30
2023-05-14T20:04:46.364Z,4.30
2023-05-14T20:07:16.070Z,4.40
2023-05-14T20:09:44.936Z,4.43
2023-05-14T20:12:13.591Z,4.07
2023-05-14T20:14:41.666Z,4.28
2023-05-14T20:17:09.129Z,4.50
2023-05-14T20:19:36.435Z,4.60
2023-05-14T20:22:03.608Z,4.35
2023-05-14T20:24:30.941Z,4.50
2023-05-14T20:26:58.160Z,5.75
2023-05-14T20:29:25.593Z,5.38
2023-05-14T20:31:52.681Z,5.35
2023-05-14T20:34:20.459Z,5.63
2023-05-14T20:36:47.875Z,4.93
2023-05-14T20:39:16.418Z,5.32
2023-05-14T20:41:45.734Z,4.30
2023-05-14T20:44:12.892Z,4.72
2023-05-14T20:46:40.199Z,4.97
2023-05-14T20:49:07.956Z,4.32
2023-05-14T20:51:38.468Z,5.00
2023-05-14T20:54:05.727Z,4.57
2023-05-14T20:56:32.997Z,4.47
2023-05-14T20:59:00.058Z,4.38
2023-05-14T21:01:27.231Z,4.72
2023-05-14T21:03:54.603Z,4.90
2023-05-14T21:06:21.955Z,4.93
